Αναφορές Αεροδρομίων

 

KSJC - San Jose, California, USA
Distance from station: ΒΑ 14km
Ενημερώθηκε: 28/01/2023 00:53
Μερικώς νεφελώδης
Μερικώς νεφελώδης
 Ανεμος από ΒΒΔ
Ανεμος: ΒΒΔ 9 km/h
Θερμοκρασία: 17°C
Σημείο Δρόσου: 4°C
Υγρασία: 42%
Βαρόμετρο: 1019.3 hPa
Clouds: Μερικώς νεφελώδης
Visibility: 16 km
Cloud details: Μερικώς νεφελώδης 6096 m
2023/01/27 22:53 KSJC 272253Z 34005KT 10SM SCT200 17/04 A3010 RMK AO2 SLP192 T01720044
KNUQ - Moffett Nas/Mtn, California, USA
Distance from station: Β 14km
Ενημερώθηκε: 28/01/2023 01:10
Αίθριος
Αίθριος
 Ανεμος από Β
Ανεμος: Β 9 km/h
Θερμοκρασία: 15°C
Σημείο Δρόσου: 4°C
Υγρασία: 48%
Βαρόμετρο: 1019.3 hPa
Clouds: Αίθριος
Visibility: 16 km
2023/01/27 23:10 KNUQ 272310Z AUTO 36005KT 10SM CLR 15/04 A3010 RMK AO2
 
KPAO - Palo Alto, California, USA
Distance from station: ΒΒΔ 23km
Ενημερώθηκε: 28/01/2023 00:47
Few Clouds
Few Clouds
 Ανεμος από Β
Ανεμος: Β 11 km/h
Θερμοκρασία: 13°C
Σημείο Δρόσου: 4°C
Υγρασία: 55%
Βαρόμετρο: 1019.6 hPa
Clouds: Few Clouds
Visibility: 16 km
Cloud details: Few Clouds 3658 m
2023/01/27 22:47 KPAO 272247Z 01006KT 10SM FEW120 13/04 A3011
KRHV - San Jose/Reid, California, USA
Distance from station: ΑΒΑ 19km
Ενημερώθηκε: 28/01/2023 00:47
Αίθριος
Αίθριος
 Ανεμος από ΒΒΔ
Ανεμος: ΒΒΔ 9 km/h
Θερμοκρασία: 17°C
Σημείο Δρόσου: 3°C
Υγρασία: 39%
Βαρόμετρο: 1019.6 hPa
Clouds: Αίθριος
Visibility: 16 km
2023/01/27 22:47 KRHV 272247Z 33005KT 10SM SKC 17/03 A3011
 
KOAK - Oakland, California, USA
Distance from station: ΒΒΔ 50km
Ενημερώθηκε: 28/01/2023 00:53
Σχεδόν νεφελώδης
Σχεδόν νεφελώδης
 Ανεμος από Δ
Ανεμος: Δ 9 km/h
Θερμοκρασία: 13°C
Σημείο Δρόσου: 7°C
Υγρασία: 67%
Βαρόμετρο: 1019.6 hPa
Clouds: Σχεδόν νεφελώδης
Visibility: 16 km
Cloud details: Few Clouds 305 m
Few Clouds 4267 m
Μερικώς νεφελώδης 5486 m
Σχεδόν νεφελώδης 7315 m
2023/01/27 22:53 KOAK 272253Z 28005KT 10SM FEW010 FEW140 SCT180 BKN240 13/07 A3011 RMK AO2 SLP197 T01330072
KSQL - San Carlos Airpo, California, USA
Distance from station: ΒΔ 34km
Ενημερώθηκε: 28/01/2023 00:52
Αίθριος
Αίθριος
 Ανεμος από Β
Ανεμος: Β 6 km/h
Θερμοκρασία: 15°C
Σημείο Δρόσου: 8°C
Υγρασία: 63%
Βαρόμετρο: 1019.6 hPa
Clouds: Αίθριος
Visibility: 16 km
2023/01/27 22:52 KSQL 272252Z 35003KT 10SM CLR 15/08 A3011
 
KSFO - San Francisco, California, USA
Distance from station: ΒΔ 49km
Ενημερώθηκε: 28/01/2023 00:56
Σχεδόν νεφελώδης
Σχεδόν νεφελώδης
 Ανεμος από ΔΒΔ
Ανεμος: ΔΒΔ 26 km/h
Θερμοκρασία: 13°C
Σημείο Δρόσου: 8°C
Υγρασία: 72%
Βαρόμετρο: 1019.6 hPa
Clouds: Σχεδόν νεφελώδης
Visibility: 16 km
Cloud details: Few Clouds 152 m
Σχεδόν νεφελώδης 6096 m
2023/01/27 22:56 KSFO 272256Z 30014KT 10SM FEW005 BKN200 13/08 A3011 RMK AO2 SLP195 T01330083
KE16 - San Martin, California, USA
Distance from station: ΑΝΑ 43km
Ενημερώθηκε: 28/01/2023 00:55
Αίθριος
Αίθριος
 Ανεμος από ΒΒΔ
Ανεμος: ΒΒΔ 15 km/h
Θερμοκρασία: 18°C
Σημείο Δρόσου: 2°C
Υγρασία: 34%
Βαρόμετρο: 1019.6 hPa
Clouds: Αίθριος
Visibility: 16 km
2023/01/27 22:55 KE16 272255Z AUTO 33008KT 10SM CLR 18/02 A3011 RMK AO2 PWINO PNO
 
KWVI - Watsonville, California, USA
Distance from station: ΝΝΑ 44km
Ενημερώθηκε: 28/01/2023 00:53
Αίθριος
Αίθριος
 Ανεμος από ΝΝΔ
Ανεμος: ΝΝΔ 11 km/h
Θερμοκρασία: 15°C
Σημείο Δρόσου: 7°C
Υγρασία: 59%
Βαρόμετρο: 1019.6 hPa
Clouds: Αίθριος
Visibility: 16 km
2023/01/27 22:53 KWVI 272253Z AUTO 21006KT 10SM CLR 15/07 A3011 RMK AO2 SLP194 T01500067
KHAF - Half Moon Bay, California, USA
Distance from station: ΔΒΔ 50km
Ενημερώθηκε: 28/01/2023 01:15
Mist, Few clouds
Mist, Few clouds
 Ανεμος από ΒΔ
Ανεμος: ΒΔ 15 km/h
Θερμοκρασία: 10°C
Wind Chill: 8°C
Σημείο Δρόσου: 9°C
Υγρασία: 94%
Βαρόμετρο: 1020.3 hPa
Περίληψη: Mist
Clouds: Few Clouds
Visibility: 10 km
Cloud details: Few Clouds 274 m
2023/01/27 23:15 KHAF 272315Z AUTO 32008KT 6SM BR FEW009 10/09 A3013 RMK AO2
 
KHWD - Hayward, California, USA
Distance from station: Β 44km
Ενημερώθηκε: 28/01/2023 00:54
Αίθριος
Αίθριος
 Ανεμος από ΔΝΔ
Ανεμος: ΔΝΔ 9 km/h
Θερμοκρασία: 15°C
Σημείο Δρόσου: 4°C
Υγρασία: 48%
Βαρόμετρο: 1019.3 hPa
Clouds: Αίθριος
Visibility: 16 km
2023/01/27 22:54 KHWD 272254Z 25005KT 10SM CLR 15/04 A3010 RMK AO2 SLP203 T01500044
KLVK - Livermore, California, USA
Distance from station: ΒΒΑ 51km
Ενημερώθηκε: 28/01/2023 00:53
Αίθριος
Αίθριος
 Ανεμος από calm
Ανεμος: Απνοια
Θερμοκρασία: 18°C
Σημείο Δρόσου: 2°C
Υγρασία: 34%
Βαρόμετρο: 1018.6 hPa
Clouds: Αίθριος
Visibility: 16 km
2023/01/27 22:53 KLVK 272253Z 00000KT 10SM CLR 18/02 A3008 RMK AO2 SLP185 T01780017